sensor_id;sensor_type;location;lat;lon;timestamp;temperature;humidity
74968;SHT30;63523;51.880;12.630;2023-01-24T00:00:33;2.42;83.90
74968;SHT30;63523;51.880;12.630;2023-01-24T00:02:58;2.51;83.34
74968;SHT30;63523;51.880;12.630;2023-01-24T00:05:24;2.46;83.44
74968;SHT30;63523;51.880;12.630;2023-01-24T00:07:50;2.40;83.79
74968;SHT30;63523;51.880;12.630;2023-01-24T00:10:15;2.49;83.39
74968;SHT30;63523;51.880;12.630;2023-01-24T00:12:41;2.46;83.53
74968;SHT30;63523;51.880;12.630;2023-01-24T00:15:07;2.49;83.59
74968;SHT30;63523;51.880;12.630;2023-01-24T00:17:32;2.51;83.72
74968;SHT30;63523;51.880;12.630;2023-01-24T00:19:58;2.44;83.66
74968;SHT30;63523;51.880;12.630;2023-01-24T00:22:24;2.38;83.76
74968;SHT30;63523;51.880;12.630;2023-01-24T00:24:49;2.42;84.00
74968;SHT30;63523;51.880;12.630;2023-01-24T00:27:15;2.38;84.03
74968;SHT30;63523;51.880;12.630;2023-01-24T00:29:41;2.41;83.71
74968;SHT30;63523;51.880;12.630;2023-01-24T00:32:06;2.40;84.14
74968;SHT30;63523;51.880;12.630;2023-01-24T00:34:32;2.41;83.43
74968;SHT30;63523;51.880;12.630;2023-01-24T00:36:57;2.34;83.97
74968;SHT30;63523;51.880;12.630;2023-01-24T00:39:23;2.30;84.21
74968;SHT30;63523;51.880;12.630;2023-01-24T00:41:48;2.46;83.32
74968;SHT30;63523;51.880;12.630;2023-01-24T00:44:14;2.35;83.98
74968;SHT30;63523;51.880;12.630;2023-01-24T00:46:39;2.35;83.41
74968;SHT30;63523;51.880;12.630;2023-01-24T00:49:06;2.30;84.27
74968;SHT30;63523;51.880;12.630;2023-01-24T00:51:32;2.38;83.98
74968;SHT30;63523;51.880;12.630;2023-01-24T00:53:58;2.41;83.44
74968;SHT30;63523;51.880;12.630;2023-01-24T00:56:23;2.31;84.02
74968;SHT30;63523;51.880;12.630;2023-01-24T00:58:49;2.48;83.68
74968;SHT30;63523;51.880;12.630;2023-01-24T01:01:14;2.33;83.64
74968;SHT30;63523;51.880;12.630;2023-01-24T01:03:40;2.44;82.99
74968;SHT30;63523;51.880;12.630;2023-01-24T01:06:09;2.48;82.92
74968;SHT30;63523;51.880;12.630;2023-01-24T01:08:35;2.45;83.20
74968;SHT30;63523;51.880;12.630;2023-01-24T01:11:01;2.44;83.10
74968;SHT30;63523;51.880;12.630;2023-01-24T01:13:27;2.44;82.70
74968;SHT30;63523;51.880;12.630;2023-01-24T01:16:20;2.45;82.84
74968;SHT30;63523;51.880;12.630;2023-01-24T01:18:49;2.45;83.23
74968;SHT30;63523;51.880;12.630;2023-01-24T01:21:18;2.51;82.84
74968;SHT30;63523;51.880;12.630;2023-01-24T01:23:45;2.48;82.79
74968;SHT30;63523;51.880;12.630;2023-01-24T01:26:19;2.48;82.64
74968;SHT30;63523;51.880;12.630;2023-01-24T01:28:45;2.49;82.40
74968;SHT30;63523;51.880;12.630;2023-01-24T01:31:11;2.38;83.32
74968;SHT30;63523;51.880;12.630;2023-01-24T01:33:36;2.49;82.36
74968;SHT30;63523;51.880;12.630;2023-01-24T01:36:02;2.42;82.94
74968;SHT30;63523;51.880;12.630;2023-01-24T01:38:28;2.42;82.79
74968;SHT30;63523;51.880;12.630;2023-01-24T01:40:57;2.42;82.85
74968;SHT30;63523;51.880;12.630;2023-01-24T01:43:25;2.35;83.54
74968;SHT30;63523;51.880;12.630;2023-01-24T01:45:53;2.25;83.98
74968;SHT30;63523;51.880;12.630;2023-01-24T01:48:20;2.34;83.65
74968;SHT30;63523;51.880;12.630;2023-01-24T01:51:04;2.23;83.72
74968;SHT30;63523;51.880;12.630;2023-01-24T01:53:48;2.14;84.28
74968;SHT30;63523;51.880;12.630;2023-01-24T01:58:50;2.23;84.12
74968;SHT30;63523;51.880;12.630;2023-01-24T02:01:16;2.28;83.94
74968;SHT30;63523;51.880;12.630;2023-01-24T02:03:50;2.28;83.71
74968;SHT30;63523;51.880;12.630;2023-01-24T02:09:27;2.21;84.08
74968;SHT30;63523;51.880;12.630;2023-01-24T02:11:58;2.13;84.49
74968;SHT30;63523;51.880;12.630;2023-01-24T02:14:26;2.21;84.40
74968;SHT30;63523;51.880;12.630;2023-01-24T02:17:11;2.23;83.78
74968;SHT30;63523;51.880;12.630;2023-01-24T02:19:43;2.25;84.19
74968;SHT30;63523;51.880;12.630;2023-01-24T02:22:30;2.28;83.76
74968;SHT30;63523;51.880;12.630;2023-01-24T02:27:48;2.07;84.46
74968;SHT30;63523;51.880;12.630;2023-01-24T02:30:14;2.14;84.68
74968;SHT30;63523;51.880;12.630;2023-01-24T02:32:39;2.27;84.24
74968;SHT30;63523;51.880;12.630;2023-01-24T02:35:05;2.38;83.42
74968;SHT30;63523;51.880;12.630;2023-01-24T02:37:34;2.45;83.32
74968;SHT30;63523;51.880;12.630;2023-01-24T02:40:08;2.42;83.27
74968;SHT30;63523;51.880;12.630;2023-01-24T02:42:36;2.34;83.65
74968;SHT30;63523;51.880;12.630;2023-01-24T02:45:16;2.23;84.04
74968;SHT30;63523;51.880;12.630;2023-01-24T02:47:49;2.20;84.37
74968;SHT30;63523;51.880;12.630;2023-01-24T02:50:20;2.21;84.33
74968;SHT30;63523;51.880;12.630;2023-01-24T02:52:46;2.17;84.17
74968;SHT30;63523;51.880;12.630;2023-01-24T02:55:30;2.17;84.06
74968;SHT30;63523;51.880;12.630;2023-01-24T02:57:57;2.10;84.49
74968;SHT30;63523;51.880;12.630;2023-01-24T03:00:38;2.13;84.24
74968;SHT30;63523;51.880;12.630;2023-01-24T03:03:05;2.06;84.08
74968;SHT30;63523;51.880;12.630;2023-01-24T03:05:31;2.07;84.51
74968;SHT30;63523;51.880;12.630;2023-01-24T03:08:26;2.09;83.82
74968;SHT30;63523;51.880;12.630;2023-01-24T03:10:52;2.16;83.86
74968;SHT30;63523;51.880;12.630;2023-01-24T03:13:17;2.23;83.81
74968;SHT30;63523;51.880;12.630;2023-01-24T03:16:02;2.24;83.66
74968;SHT30;63523;51.880;12.630;2023-01-24T03:18:47;2.28;83.54
74968;SHT30;63523;51.880;12.630;2023-01-24T03:21:31;2.21;83.79
74968;SHT30;63523;51.880;12.630;2023-01-24T03:24:15;2.06;84.60
74968;SHT30;63523;51.880;12.630;2023-01-24T03:26:59;2.04;84.59
74968;SHT30;63523;51.880;12.630;2023-01-24T03:29:43;1.99;84.97
74968;SHT30;63523;51.880;12.630;2023-01-24T03:32:27;2.09;84.56
74968;SHT30;63523;51.880;12.630;2023-01-24T03:35:11;2.13;84.17
74968;SHT30;63523;51.880;12.630;2023-01-24T03:37:36;2.20;84.11
74968;SHT30;63523;51.880;12.630;2023-01-24T03:40:20;2.10;84.30
74968;SHT30;63523;51.880;12.630;2023-01-24T03:42:46;2.13;84.38
74968;SHT30;63523;51.880;12.630;2023-01-24T03:45:20;2.17;83.83
74968;SHT30;63523;51.880;12.630;2023-01-24T03:47:47;2.04;84.59
74968;SHT30;63523;51.880;12.630;2023-01-24T03:50:24;1.99;84.90
74968;SHT30;63523;51.880;12.630;2023-01-24T03:53:09;2.03;84.29
74968;SHT30;63523;51.880;12.630;2023-01-24T03:55:35;2.06;84.55
74968;SHT30;63523;51.880;12.630;2023-01-24T03:58:01;1.99;84.53
74968;SHT30;63523;51.880;12.630;2023-01-24T04:00:26;1.96;84.99
74968;SHT30;63523;51.880;12.630;2023-01-24T04:02:52;2.06;84.59
74968;SHT30;63523;51.880;12.630;2023-01-24T04:05:18;1.99;84.69
74968;SHT30;63523;51.880;12.630;2023-01-24T04:07:48;1.92;85.12
74968;SHT30;63523;51.880;12.630;2023-01-24T04:10:14;1.96;84.70
74968;SHT30;63523;51.880;12.630;2023-01-24T04:12:41;1.95;84.81
74968;SHT30;63523;51.880;12.630;2023-01-24T04:15:07;1.93;84.90
74968;SHT30;63523;51.880;12.630;2023-01-24T04:17:33;2.09;84.19
74968;SHT30;63523;51.880;12.630;2023-01-24T04:19:58;1.99;84.36
74968;SHT30;63523;51.880;12.630;2023-01-24T04:22:24;1.93;84.90
74968;SHT30;63523;51.880;12.630;2023-01-24T04:24:49;1.93;84.69
74968;SHT30;63523;51.880;12.630;2023-01-24T04:27:15;1.93;84.86
74968;SHT30;63523;51.880;12.630;2023-01-24T04:29:41;1.93;84.69
74968;SHT30;63523;51.880;12.630;2023-01-24T04:32:07;1.93;84.92
74968;SHT30;63523;51.880;12.630;2023-01-24T04:34:32;2.02;84.73
74968;SHT30;63523;51.880;12.630;2023-01-24T04:36:58;1.92;85.26
74968;SHT30;63523;51.880;12.630;2023-01-24T04:39:24;1.96;84.73
74968;SHT30;63523;51.880;12.630;2023-01-24T04:41:49;1.92;84.83
74968;SHT30;63523;51.880;12.630;2023-01-24T04:44:15;1.93;84.58
74968;SHT30;63523;51.880;12.630;2023-01-24T04:46:40;1.93;84.60
74968;SHT30;63523;51.880;12.630;2023-01-24T04:49:06;1.90;84.57
74968;SHT30;63523;51.880;12.630;2023-01-24T04:51:31;1.87;84.57
74968;SHT30;63523;51.880;12.630;2023-01-24T04:53:57;1.89;84.88
74968;SHT30;63523;51.880;12.630;2023-01-24T04:56:22;1.92;84.86
74968;SHT30;63523;51.880;12.630;2023-01-24T04:58:48;1.96;84.30
74968;SHT30;63523;51.880;12.630;2023-01-24T05:01:13;1.89;84.90
74968;SHT30;63523;51.880;12.630;2023-01-24T05:03:38;1.90;84.89
74968;SHT30;63523;51.880;12.630;2023-01-24T05:06:04;1.85;84.97
74968;SHT30;63523;51.880;12.630;2023-01-24T05:08:30;1.86;84.88
74968;SHT30;63523;51.880;12.630;2023-01-24T05:10:55;1.87;84.29
74968;SHT30;63523;51.880;12.630;2023-01-24T05:13:22;1.79;84.67
74968;SHT30;63523;51.880;12.630;2023-01-24T05:15:49;1.70;85.22
74968;SHT30;63523;51.880;12.630;2023-01-24T05:18:15;1.78;85.14
74968;SHT30;63523;51.880;12.630;2023-01-24T05:20:41;1.86;84.48
74968;SHT30;63523;51.880;12.630;2023-01-24T05:23:10;1.85;84.00
74968;SHT30;63523;51.880;12.630;2023-01-24T05:25:35;1.83;84.24
74968;SHT30;63523;51.880;12.630;2023-01-24T05:28:01;1.80;84.73
74968;SHT30;63523;51.880;12.630;2023-01-24T05:30:26;1.78;84.94
74968;SHT30;63523;51.880;12.630;2023-01-24T05:32:57;1.75;84.53
74968;SHT30;63523;51.880;12.630;2023-01-24T05:35:23;1.70;85.28
74968;SHT30;63523;51.880;12.630;2023-01-24T05:37:50;1.73;85.08
74968;SHT30;63523;51.880;12.630;2023-01-24T05:40:16;1.63;85.54
74968;SHT30;63523;51.880;12.630;2023-01-24T05:42:42;1.70;84.72
74968;SHT30;63523;51.880;12.630;2023-01-24T05:45:08;1.78;84.45
74968;SHT30;63523;51.880;12.630;2023-01-24T05:47:34;1.80;84.36
74968;SHT30;63523;51.880;12.630;2023-01-24T05:49:59;1.75;84.21
74968;SHT30;63523;51.880;12.630;2023-01-24T05:52:25;1.73;84.56
74968;SHT30;63523;51.880;12.630;2023-01-24T05:54:51;1.76;84.48
74968;SHT30;63523;51.880;12.630;2023-01-24T05:57:17;1.69;84.53
74968;SHT30;63523;51.880;12.630;2023-01-24T05:59:43;1.73;84.43
74968;SHT30;63523;51.880;12.630;2023-01-24T06:02:09;1.72;84.36
74968;SHT30;63523;51.880;12.630;2023-01-24T06:04:34;1.78;84.70
74968;SHT30;63523;51.880;12.630;2023-01-24T06:07:00;1.69;84.46
74968;SHT30;63523;51.880;12.630;2023-01-24T06:09:25;1.69;84.81
74968;SHT30;63523;51.880;12.630;2023-01-24T06:11:51;1.70;84.64
74968;SHT30;63523;51.880;12.630;2023-01-24T06:14:17;1.78;84.13
74968;SHT30;63523;51.880;12.630;2023-01-24T06:16:43;1.68;84.59
74968;SHT30;63523;51.880;12.630;2023-01-24T06:19:13;1.59;85.13
74968;SHT30;63523;51.880;12.630;2023-01-24T06:21:44;1.63;84.93
74968;SHT30;63523;51.880;12.630;2023-01-24T06:26:44;1.85;84.19
74968;SHT30;63523;51.880;12.630;2023-01-24T06:29:11;1.85;83.73
74968;SHT30;63523;51.880;12.630;2023-01-24T06:37:48;1.73;84.55
74968;SHT30;63523;51.880;12.630;2023-01-24T06:40:17;1.75;84.60
74968;SHT30;63523;51.880;12.630;2023-01-24T06:42:43;1.75;84.55
74968;SHT30;63523;51.880;12.630;2023-01-24T06:45:09;1.85;84.37
74968;SHT30;63523;51.880;12.630;2023-01-24T06:47:35;1.83;84.43
74968;SHT30;63523;51.880;12.630;2023-01-24T06:50:00;1.87;84.41
74968;SHT30;63523;51.880;12.630;2023-01-24T06:52:26;1.82;84.38
74968;SHT30;63523;51.880;12.630;2023-01-24T06:54:51;1.79;84.57
74968;SHT30;63523;51.880;12.630;2023-01-24T06:57:17;1.69;84.86
74968;SHT30;63523;51.880;12.630;2023-01-24T06:59:42;1.72;84.67
74968;SHT30;63523;51.880;12.630;2023-01-24T07:02:11;1.68;84.87
74968;SHT30;63523;51.880;12.630;2023-01-24T07:04:37;1.65;85.00
74968;SHT30;63523;51.880;12.630;2023-01-24T07:07:03;1.61;85.28
74968;SHT30;63523;51.880;12.630;2023-01-24T07:09:31;1.68;84.54
74968;SHT30;63523;51.880;12.630;2023-01-24T07:11:56;1.82;84.14
74968;SHT30;63523;51.880;12.630;2023-01-24T07:14:23;1.72;84.24
74968;SHT30;63523;51.880;12.630;2023-01-24T07:16:49;1.66;84.64
74968;SHT30;63523;51.880;12.630;2023-01-24T07:19:19;1.75;84.14
74968;SHT30;63523;51.880;12.630;2023-01-24T07:21:47;1.75;83.68
74968;SHT30;63523;51.880;12.630;2023-01-24T07:24:15;1.70;83.67
74968;SHT30;63523;51.880;12.630;2023-01-24T07:26:41;1.65;84.66
74968;SHT30;63523;51.880;12.630;2023-01-24T07:29:06;1.72;83.70
74968;SHT30;63523;51.880;12.630;2023-01-24T07:31:32;1.70;83.76
74968;SHT30;63523;51.880;12.630;2023-01-24T07:33:58;1.72;83.67
74968;SHT30;63523;51.880;12.630;2023-01-24T07:36:23;1.75;83.76
74968;SHT30;63523;51.880;12.630;2023-01-24T07:38:53;1.72;83.70
74968;SHT30;63523;51.880;12.630;2023-01-24T07:41:19;1.69;83.34
74968;SHT30;63523;51.880;12.630;2023-01-24T07:43:44;1.68;83.51
74968;SHT30;63523;51.880;12.630;2023-01-24T07:46:10;1.56;84.10
74968;SHT30;63523;51.880;12.630;2023-01-24T07:48:35;1.66;83.52
74968;SHT30;63523;51.880;12.630;2023-01-24T07:51:01;1.65;83.65
74968;SHT30;63523;51.880;12.630;2023-01-24T07:53:27;1.61;84.15
74968;SHT30;63523;51.880;12.630;2023-01-24T07:55:52;1.68;84.61
74968;SHT30;63523;51.880;12.630;2023-01-24T07:58:18;1.66;84.33
74968;SHT30;63523;51.880;12.630;2023-01-24T08:00:43;1.75;83.76
74968;SHT30;63523;51.880;12.630;2023-01-24T08:03:10;1.86;83.75
74968;SHT30;63523;51.880;12.630;2023-01-24T08:05:38;1.87;83.71
74968;SHT30;63523;51.880;12.630;2023-01-24T08:08:04;1.89;83.41
74968;SHT30;63523;51.880;12.630;2023-01-24T08:10:30;1.87;83.61
74968;SHT30;63523;51.880;12.630;2023-01-24T08:12:56;1.70;84.69
74968;SHT30;63523;51.880;12.630;2023-01-24T08:15:21;1.86;83.57
74968;SHT30;63523;51.880;12.630;2023-01-24T08:17:47;1.87;83.54
74968;SHT30;63523;51.880;12.630;2023-01-24T08:20:13;1.93;82.67
74968;SHT30;63523;51.880;12.630;2023-01-24T08:22:40;1.90;82.67
74968;SHT30;63523;51.880;12.630;2023-01-24T08:25:06;1.90;82.98
74968;SHT30;63523;51.880;12.630;2023-01-24T08:27:32;1.92;82.97
74968;SHT30;63523;51.880;12.630;2023-01-24T08:29:57;1.95;82.36
74968;SHT30;63523;51.880;12.630;2023-01-24T08:32:23;1.83;83.10
74968;SHT30;63523;51.880;12.630;2023-01-24T08:34:48;1.90;82.59
74968;SHT30;63523;51.880;12.630;2023-01-24T08:37:14;1.90;82.69
74968;SHT30;63523;51.880;12.630;2023-01-24T08:39:43;1.93;82.23
74968;SHT30;63523;51.880;12.630;2023-01-24T08:42:09;2.02;82.33
74968;SHT30;63523;51.880;12.630;2023-01-24T08:44:35;1.93;82.10
74968;SHT30;63523;51.880;12.630;2023-01-24T08:47:01;1.90;81.86
74968;SHT30;63523;51.880;12.630;2023-01-24T08:49:26;1.87;82.40
74968;SHT30;63523;51.880;12.630;2023-01-24T08:51:52;1.97;81.81
74968;SHT30;63523;51.880;12.630;2023-01-24T08:54:25;1.95;81.70
74968;SHT30;63523;51.880;12.630;2023-01-24T08:56:51;1.90;81.82
74968;SHT30;63523;51.880;12.630;2023-01-24T08:59:16;2.00;81.70
74968;SHT30;63523;51.880;12.630;2023-01-24T09:01:45;2.03;82.21
74968;SHT30;63523;51.880;12.630;2023-01-24T09:04:11;2.09;81.54
74968;SHT30;63523;51.880;12.630;2023-01-24T09:06:37;2.11;81.77
74968;SHT30;63523;51.880;12.630;2023-01-24T09:09:02;2.13;82.08
74968;SHT30;63523;51.880;12.630;2023-01-24T09:11:30;2.11;82.00
74968;SHT30;63523;51.880;12.630;2023-01-24T09:13:55;2.16;81.77
74968;SHT30;63523;51.880;12.630;2023-01-24T09:16:21;2.18;81.59
74968;SHT30;63523;51.880;12.630;2023-01-24T09:18:47;2.30;81.18
74968;SHT30;63523;51.880;12.630;2023-01-24T09:21:14;2.30;80.59
74968;SHT30;63523;51.880;12.630;2023-01-24T09:23:40;2.30;81.03
74968;SHT30;63523;51.880;12.630;2023-01-24T09:26:06;2.25;80.98
74968;SHT30;63523;51.880;12.630;2023-01-24T09:28:32;2.24;80.88
74968;SHT30;63523;51.880;12.630;2023-01-24T09:30:59;2.24;81.67
74968;SHT30;63523;51.880;12.630;2023-01-24T09:33:25;2.25;81.34
74968;SHT30;63523;51.880;12.630;2023-01-24T09:35:52;2.28;81.33
74968;SHT30;63523;51.880;12.630;2023-01-24T09:38:18;2.41;80.91
74968;SHT30;63523;51.880;12.630;2023-01-24T09:40:54;2.37;81.04
74968;SHT30;63523;51.880;12.630;2023-01-24T09:43:30;2.31;81.52
74968;SHT30;63523;51.880;12.630;2023-01-24T09:48:38;2.52;80.13
74968;SHT30;63523;51.880;12.630;2023-01-24T09:51:16;2.53;80.99
74968;SHT30;63523;51.880;12.630;2023-01-24T09:53:45;2.41;81.98
74968;SHT30;63523;51.880;12.630;2023-01-24T09:56:21;2.45;81.47
74968;SHT30;63523;51.880;12.630;2023-01-24T10:01:35;2.52;81.34
74968;SHT30;63523;51.880;12.630;2023-01-24T10:04:02;2.46;81.37
74968;SHT30;63523;51.880;12.630;2023-01-24T10:06:29;2.49;81.16
74968;SHT30;63523;51.880;12.630;2023-01-24T10:08:59;2.51;80.95
74968;SHT30;63523;51.880;12.630;2023-01-24T10:14:43;2.52;80.90
74968;SHT30;63523;51.880;12.630;2023-01-24T10:25:18;2.48;80.53
74968;SHT30;63523;51.880;12.630;2023-01-24T10:27:49;2.51;79.65
74968;SHT30;63523;51.880;12.630;2023-01-24T10:32:43;2.40;81.07
74968;SHT30;63523;51.880;12.630;2023-01-24T10:35:15;2.51;80.55
74968;SHT30;63523;51.880;12.630;2023-01-24T10:37:44;2.45;80.98
74968;SHT30;63523;51.880;12.630;2023-01-24T10:40:16;2.49;81.48
74968;SHT30;63523;51.880;12.630;2023-01-24T10:42:42;2.53;81.34
74968;SHT30;63523;51.880;12.630;2023-01-24T10:45:31;2.49;81.22
74968;SHT30;63523;51.880;12.630;2023-01-24T10:51:17;2.56;80.48
74968;SHT30;63523;51.880;12.630;2023-01-24T10:53:43;2.59;80.65
74968;SHT30;63523;51.880;12.630;2023-01-24T10:56:09;2.62;80.66
74968;SHT30;63523;51.880;12.630;2023-01-24T10:58:37;2.63;80.51
74968;SHT30;63523;51.880;12.630;2023-01-24T11:03:43;2.45;81.97
74968;SHT30;63523;51.880;12.630;2023-01-24T11:08:55;2.56;81.36
74968;SHT30;63523;51.880;12.630;2023-01-24T11:11:29;2.51;81.13
74968;SHT30;63523;51.880;12.630;2023-01-24T11:14:04;2.58;81.22
74968;SHT30;63523;51.880;12.630;2023-01-24T11:16:34;2.55;80.57
74968;SHT30;63523;51.880;12.630;2023-01-24T11:19:25;2.56;80.51
74968;SHT30;63523;51.880;12.630;2023-01-24T11:21:54;2.58;81.24
74968;SHT30;63523;51.880;12.630;2023-01-24T11:24:20;2.53;80.87
74968;SHT30;63523;51.880;12.630;2023-01-24T11:29:23;2.52;80.79
74968;SHT30;63523;51.880;12.630;2023-01-24T11:31:57;2.51;81.39
74968;SHT30;63523;51.880;12.630;2023-01-24T11:40:19;2.63;80.27
74968;SHT30;63523;51.880;12.630;2023-01-24T11:46:05;2.62;80.48
74968;SHT30;63523;51.880;12.630;2023-01-24T11:48:57;2.56;80.40
74968;SHT30;63523;51.880;12.630;2023-01-24T11:54:45;2.66;80.36
74968;SHT30;63523;51.880;12.630;2023-01-24T11:57:34;2.59;80.76
74968;SHT30;63523;51.880;12.630;2023-01-24T12:03:09;2.62;80.12
74968;SHT30;63523;51.880;12.630;2023-01-24T12:06:38;2.69;80.07
74968;SHT30;63523;51.880;12.630;2023-01-24T12:09:16;2.73;80.03
74968;SHT30;63523;51.880;12.630;2023-01-24T12:22:23;2.66;80.99
74968;SHT30;63523;51.880;12.630;2023-01-24T12:25:16;2.65;80.73
74968;SHT30;63523;51.880;12.630;2023-01-24T12:27:45;2.62;80.95
74968;SHT30;63523;51.880;12.630;2023-01-24T12:30:39;2.71;80.43
74968;SHT30;63523;51.880;12.630;2023-01-24T12:33:40;2.58;81.06
74968;SHT30;63523;51.880;12.630;2023-01-24T12:36:33;2.73;80.32
74968;SHT30;63523;51.880;12.630;2023-01-24T12:39:06;2.80;80.79
74968;SHT30;63523;51.880;12.630;2023-01-24T12:41:36;2.93;79.20
74968;SHT30;63523;51.880;12.630;2023-01-24T12:49:43;2.86;79.43
74968;SHT30;63523;51.880;12.630;2023-01-24T12:52:22;2.82;79.84
74968;SHT30;63523;51.880;12.630;2023-01-24T12:55:16;2.76;79.51
74968;SHT30;63523;51.880;12.630;2023-01-24T12:57:51;2.73;79.99
74968;SHT30;63523;51.880;12.630;2023-01-24T13:00:21;2.66;81.21
74968;SHT30;63523;51.880;12.630;2023-01-24T13:11:25;2.61;79.99
74968;SHT30;63523;51.880;12.630;2023-01-24T13:14:26;2.59;80.89
74968;SHT30;63523;51.880;12.630;2023-01-24T13:25:46;2.75;80.20
74968;SHT30;63523;51.880;12.630;2023-01-24T13:28:30;2.76;80.52
74968;SHT30;63523;51.880;12.630;2023-01-24T13:33:40;2.79;80.23
74968;SHT30;63523;51.880;12.630;2023-01-24T13:36:17;2.79;80.16
74968;SHT30;63523;51.880;12.630;2023-01-24T13:38:44;2.78;80.41
74968;SHT30;63523;51.880;12.630;2023-01-24T13:46:16;2.76;79.96
74968;SHT30;63523;51.880;12.630;2023-01-24T13:48:44;2.78;80.23
74968;SHT30;63523;51.880;12.630;2023-01-24T13:59:40;2.72;80.10
74968;SHT30;63523;51.880;12.630;2023-01-24T14:10:35;2.66;80.71
74968;SHT30;63523;51.880;12.630;2023-01-24T14:13:01;2.63;80.53
74968;SHT30;63523;51.880;12.630;2023-01-24T14:15:38;2.71;80.39
74968;SHT30;63523;51.880;12.630;2023-01-24T14:18:43;2.65;80.81
74968;SHT30;63523;51.880;12.630;2023-01-24T14:21:16;2.71;80.23
74968;SHT30;63523;51.880;12.630;2023-01-24T14:23:45;2.68;80.67
74968;SHT30;63523;51.880;12.630;2023-01-24T14:26:21;2.59;81.33
74968;SHT30;63523;51.880;12.630;2023-01-24T14:28:55;2.62;80.56
74968;SHT30;63523;51.880;12.630;2023-01-24T14:31:25;2.66;80.36
74968;SHT30;63523;51.880;12.630;2023-01-24T14:34:11;2.66;80.18
74968;SHT30;63523;51.880;12.630;2023-01-24T14:36:39;2.55;80.71
74968;SHT30;63523;51.880;12.630;2023-01-24T14:39:12;2.53;81.38
74968;SHT30;63523;51.880;12.630;2023-01-24T14:41:40;2.58;81.14
74968;SHT30;63523;51.880;12.630;2023-01-24T14:44:23;2.58;81.02
74968;SHT30;63523;51.880;12.630;2023-01-24T14:49:32;2.48;81.21
74968;SHT30;63523;51.880;12.630;2023-01-24T14:51:58;2.45;81.54
74968;SHT30;63523;51.880;12.630;2023-01-24T14:54:24;2.40;81.68
74968;SHT30;63523;51.880;12.630;2023-01-24T14:56:51;2.44;81.47
74968;SHT30;63523;51.880;12.630;2023-01-24T14:59:20;2.48;81.62
74968;SHT30;63523;51.880;12.630;2023-01-24T15:01:50;2.53;81.01
74968;SHT30;63523;51.880;12.630;2023-01-24T15:06:46;2.44;81.43
74968;SHT30;63523;51.880;12.630;2023-01-24T15:09:27;2.42;81.53
74968;SHT30;63523;51.880;12.630;2023-01-24T15:11:52;2.49;80.99
74968;SHT30;63523;51.880;12.630;2023-01-24T15:14:19;2.41;81.18
74968;SHT30;63523;51.880;12.630;2023-01-24T15:16:51;2.38;81.51
74968;SHT30;63523;51.880;12.630;2023-01-24T15:19:25;2.37;82.09
74968;SHT30;63523;51.880;12.630;2023-01-24T15:21:53;2.33;82.06
74968;SHT30;63523;51.880;12.630;2023-01-24T15:24:27;2.34;81.61
74968;SHT30;63523;51.880;12.630;2023-01-24T15:26:54;2.35;81.82
74968;SHT30;63523;51.880;12.630;2023-01-24T15:29:40;2.28;81.62
74968;SHT30;63523;51.880;12.630;2023-01-24T15:34:45;2.30;82.38
74968;SHT30;63523;51.880;12.630;2023-01-24T15:37:13;2.34;82.08
74968;SHT30;63523;51.880;12.630;2023-01-24T15:39:39;2.37;81.91
74968;SHT30;63523;51.880;12.630;2023-01-24T15:42:10;2.40;81.49
74968;SHT30;63523;51.880;12.630;2023-01-24T15:44:57;2.42;81.45
74968;SHT30;63523;51.880;12.630;2023-01-24T15:47:24;2.33;82.17
74968;SHT30;63523;51.880;12.630;2023-01-24T15:50:21;2.30;82.02
74968;SHT30;63523;51.880;12.630;2023-01-24T15:53:19;2.34;81.72
74968;SHT30;63523;51.880;12.630;2023-01-24T15:55:46;2.28;82.03
74968;SHT30;63523;51.880;12.630;2023-01-24T15:58:12;2.33;81.98
74968;SHT30;63523;51.880;12.630;2023-01-24T16:00:37;2.28;82.30
74968;SHT30;63523;51.880;12.630;2023-01-24T16:03:03;2.27;82.58
74968;SHT30;63523;51.880;12.630;2023-01-24T16:05:29;2.37;81.89
74968;SHT30;63523;51.880;12.630;2023-01-24T16:07:55;2.35;81.70
74968;SHT30;63523;51.880;12.630;2023-01-24T16:10:20;2.30;81.95
74968;SHT30;63523;51.880;12.630;2023-01-24T16:12:49;2.28;81.93
74968;SHT30;63523;51.880;12.630;2023-01-24T16:15:16;2.25;82.43
74968;SHT30;63523;51.880;12.630;2023-01-24T16:17:42;2.25;81.67
74968;SHT30;63523;51.880;12.630;2023-01-24T16:20:22;2.30;81.86
74968;SHT30;63523;51.880;12.630;2023-01-24T16:22:48;2.27;82.18
74968;SHT30;63523;51.880;12.630;2023-01-24T16:25:15;2.30;81.89
74968;SHT30;63523;51.880;12.630;2023-01-24T16:27:41;2.34;81.89
74968;SHT30;63523;51.880;12.630;2023-01-24T16:30:24;2.27;82.30
74968;SHT30;63523;51.880;12.630;2023-01-24T16:32:51;2.31;81.71
74968;SHT30;63523;51.880;12.630;2023-01-24T16:35:17;2.40;81.54
74968;SHT30;63523;51.880;12.630;2023-01-24T16:37:43;2.37;81.64
74968;SHT30;63523;51.880;12.630;2023-01-24T16:40:10;2.33;81.77
74968;SHT30;63523;51.880;12.630;2023-01-24T16:42:39;2.23;82.31
74968;SHT30;63523;51.880;12.630;2023-01-24T16:45:06;2.24;82.32
74968;SHT30;63523;51.880;12.630;2023-01-24T16:47:31;2.24;82.26
74968;SHT30;63523;51.880;12.630;2023-01-24T16:49:57;2.34;81.85
74968;SHT30;63523;51.880;12.630;2023-01-24T16:52:25;2.28;82.60
74968;SHT30;63523;51.880;12.630;2023-01-24T16:54:51;2.24;82.77
74968;SHT30;63523;51.880;12.630;2023-01-24T16:57:17;2.23;82.67
74968;SHT30;63523;51.880;12.630;2023-01-24T16:59:43;2.18;82.78
74968;SHT30;63523;51.880;12.630;2023-01-24T17:02:10;2.13;83.27
74968;SHT30;63523;51.880;12.630;2023-01-24T17:04:35;2.28;82.44
74968;SHT30;63523;51.880;12.630;2023-01-24T17:07:01;2.21;82.61
74968;SHT30;63523;51.880;12.630;2023-01-24T17:09:29;2.27;82.29
74968;SHT30;63523;51.880;12.630;2023-01-24T17:11:54;2.18;82.68
74968;SHT30;63523;51.880;12.630;2023-01-24T17:14:20;2.09;83.07
74968;SHT30;63523;51.880;12.630;2023-01-24T17:16:47;2.02;83.44
74968;SHT30;63523;51.880;12.630;2023-01-24T17:19:13;2.03;83.55
74968;SHT30;63523;51.880;12.630;2023-01-24T17:21:39;1.93;83.69
74968;SHT30;63523;51.880;12.630;2023-01-24T17:24:05;1.93;83.89
74968;SHT30;63523;51.880;12.630;2023-01-24T17:26:30;1.95;83.83
74968;SHT30;63523;51.880;12.630;2023-01-24T17:28:56;2.03;83.26
74968;SHT30;63523;51.880;12.630;2023-01-24T17:31:22;1.97;83.31
74968;SHT30;63523;51.880;12.630;2023-01-24T17:33:47;2.00;83.25
74968;SHT30;63523;51.880;12.630;2023-01-24T17:36:13;2.02;83.13
74968;SHT30;63523;51.880;12.630;2023-01-24T17:38:40;2.03;83.03
74968;SHT30;63523;51.880;12.630;2023-01-24T17:41:14;2.04;83.10
74968;SHT30;63523;51.880;12.630;2023-01-24T17:43:39;2.06;83.21
74968;SHT30;63523;51.880;12.630;2023-01-24T17:46:05;2.02;83.38
74968;SHT30;63523;51.880;12.630;2023-01-24T17:48:31;1.93;83.77
74968;SHT30;63523;51.880;12.630;2023-01-24T17:50:57;1.90;83.78
74968;SHT30;63523;51.880;12.630;2023-01-24T17:53:22;1.87;84.18